sensor_id;sensor_type;location;lat;lon;timestamp;pressure;altitude;pressure_sealevel;temperature;humidity
53699;BME280;68408;53.952;27.612;2023-05-01T00:01:29;1012.3;;;5.9;50.3
53699;BME280;68408;53.952;27.612;2023-05-01T00:06:41;1012.3;;;5.9;50.5
53699;BME280;68408;53.952;27.612;2023-05-01T00:11:57;1012.4;;;5.8;50.6
53699;BME280;68408;53.952;27.612;2023-05-01T00:16:19;1012.4;;;5.8;50.6
53699;BME280;68408;53.952;27.612;2023-05-01T00:21:31;1012.5;;;5.7;50.9
53699;BME280;68408;53.952;27.612;2023-05-01T00:26:09;1012.5;;;5.7;51
53699;BME280;68408;53.952;27.612;2023-05-01T00:31:53;1012.6;;;5.6;51.3
53699;BME280;68408;53.952;27.612;2023-05-01T00:36:31;1012.7;;;5.5;51.4
53699;BME280;68408;53.952;27.612;2023-05-01T00:41:09;1012.8;;;5.5;51.6
53699;BME280;68408;53.952;27.612;2023-05-01T00:46:39;1012.9;;;5.4;51.8
53699;BME280;68408;53.952;27.612;2023-05-01T00:51:35;1012.9;;;5.4;52
53699;BME280;68408;53.952;27.612;2023-05-01T00:56:15;1012.9;;;5.3;52.1
53699;BME280;68408;53.952;27.612;2023-05-01T01:01:21;1013;;;5.3;52.3
53699;BME280;68408;53.952;27.612;2023-05-01T01:06:57;1013;;;5.2;52.3
53699;BME280;68408;53.952;27.612;2023-05-01T01:11:23;1013;;;5.1;52.4
53699;BME280;68408;53.952;27.612;2023-05-01T01:16:40;1013.1;;;5;52.6
53699;BME280;68408;53.952;27.612;2023-05-01T01:21:38;1013.1;;;5;52.8
53699;BME280;68408;53.952;27.612;2023-05-01T01:26:58;1013.1;;;4.9;53.2
53699;BME280;68408;53.952;27.612;2023-05-01T01:31:31;1013.2;;;4.8;53.4
53699;BME280;68408;53.952;27.612;2023-05-01T01:36:55;1013.2;;;4.8;53.7
53699;BME280;68408;53.952;27.612;2023-05-01T01:41:53;1013.3;;;4.7;53.8
53699;BME280;68408;53.952;27.612;2023-05-01T01:46:55;1013.3;;;4.7;53.9
53699;BME280;68408;53.952;27.612;2023-05-01T01:51:11;1013.3;;;4.7;54
53699;BME280;68408;53.952;27.612;2023-05-01T01:56:53;1013.4;;;4.6;54.2
53699;BME280;68408;53.952;27.612;2023-05-01T02:01:33;1013.4;;;4.6;54.4
53699;BME280;68408;53.952;27.612;2023-05-01T02:06:35;1013.5;;;4.5;54.6
53699;BME280;68408;53.952;27.612;2023-05-01T02:11:41;1013.6;;;4.4;54.8
53699;BME280;68408;53.952;27.612;2023-05-01T02:16:55;1013.6;;;4.4;55
53699;BME280;68408;53.952;27.612;2023-05-01T02:21:23;1013.7;;;4.3;55.5
53699;BME280;68408;53.952;27.612;2023-05-01T02:26:55;1013.8;;;4.1;56
53699;BME280;68408;53.952;27.612;2023-05-01T02:31:53;1013.8;;;4.1;56.2
53699;BME280;68408;53.952;27.612;2023-05-01T02:36:29;1013.9;;;4.1;56.3
53699;BME280;68408;53.952;27.612;2023-05-01T02:41:17;1014;;;4;56.3
53699;BME280;68408;53.952;27.612;2023-05-01T02:46:24;1014;;;4;56.5
53699;BME280;68408;53.952;27.612;2023-05-01T02:51:09;1014;;;4;56.4
53699;BME280;68408;53.952;27.612;2023-05-01T02:56:47;1014.1;;;4;56.4
53699;BME280;68408;53.952;27.612;2023-05-01T03:01:41;1014.2;;;4.1;56.4
53699;BME280;68408;53.952;27.612;2023-05-01T03:06:23;1014.2;;;4.2;56.1
53699;BME280;68408;53.952;27.612;2023-05-01T03:11:53;1014.2;;;4.3;56
53699;BME280;68408;53.952;27.612;2023-05-01T03:16:53;1014.2;;;4.3;56
53699;BME280;68408;53.952;27.612;2023-05-01T03:21:25;1014.3;;;4.3;56.1
53699;BME280;68408;53.952;27.612;2023-05-01T03:26:29;1014.4;;;4.3;56.1
53699;BME280;68408;53.952;27.612;2023-05-01T03:31:21;1014.4;;;4.4;56.3
53699;BME280;68408;53.952;27.612;2023-05-01T03:36:51;1014.4;;;4.4;56.2
53699;BME280;68408;53.952;27.612;2023-05-01T03:41:31;1014.5;;;4.5;56
53699;BME280;68408;53.952;27.612;2023-05-01T03:46:19;1014.5;;;4.6;55.9
53699;BME280;68408;53.952;27.612;2023-05-01T03:51:53;1014.6;;;4.7;55.6
53699;BME280;68408;53.952;27.612;2023-05-01T03:56:23;1014.6;;;4.7;55.6
53699;BME280;68408;53.952;27.612;2023-05-01T04:01:21;1014.7;;;4.8;55.2
53699;BME280;68408;53.952;27.612;2023-05-01T04:06:25;1014.7;;;4.8;55
53699;BME280;68408;53.952;27.612;2023-05-01T04:11:55;1014.8;;;5;54.8
53699;BME280;68408;53.952;27.612;2023-05-01T04:16:33;1014.8;;;5;54.6
53699;BME280;68408;53.952;27.612;2023-05-01T04:21:53;1014.9;;;5.1;54.4
53699;BME280;68408;53.952;27.612;2023-05-01T04:26:55;1015;;;5.3;54.1
53699;BME280;68408;53.952;27.612;2023-05-01T04:31:53;1015;;;5.4;53.8
53699;BME280;68408;53.952;27.612;2023-05-01T04:36:31;1015;;;5.4;53.6
53699;BME280;68408;53.952;27.612;2023-05-01T04:41:43;1015;;;5.5;53.5
53699;BME280;68408;53.952;27.612;2023-05-01T04:46:37;1015.1;;;5.6;53.4
53699;BME280;68408;53.952;27.612;2023-05-01T04:51:45;1015.1;;;5.8;53.2
53699;BME280;68408;53.952;27.612;2023-05-01T04:56:15;1015.1;;;6;52.6
53699;BME280;68408;53.952;27.612;2023-05-01T05:01:53;1015.2;;;6;52.4
53699;BME280;68408;53.952;27.612;2023-05-01T05:06:45;1015.2;;;6.2;52.3
53699;BME280;68408;53.952;27.612;2023-05-01T05:11:19;1015.2;;;6.3;51.9
53699;BME280;68408;53.952;27.612;2023-05-01T05:16:25;1015.3;;;6.4;51.7
53699;BME280;68408;53.952;27.612;2023-05-01T05:21:53;1015.3;;;6.4;51.7
53699;BME280;68408;53.952;27.612;2023-05-01T05:26:23;1015.4;;;6.4;51.5
53699;BME280;68408;53.952;27.612;2023-05-01T05:31:43;1015.4;;;6.5;51.5
53699;BME280;68408;53.952;27.612;2023-05-01T05:36:53;1015.4;;;6.6;50.8
53699;BME280;68408;53.952;27.612;2023-05-01T05:41:19;1015.4;;;6.8;50.3
53699;BME280;68408;53.952;27.612;2023-05-01T05:46:37;1015.4;;;6.9;49.9
53699;BME280;68408;53.952;27.612;2023-05-01T05:51:23;1015.4;;;7;49
53699;BME280;68408;53.952;27.612;2023-05-01T05:56:21;1015.4;;;7.1;48.5
53699;BME280;68408;53.952;27.612;2023-05-01T06:01:47;1015.5;;;7.1;48.1
53699;BME280;68408;53.952;27.612;2023-05-01T06:06:23;1015.5;;;7.2;47.4
53699;BME280;68408;53.952;27.612;2023-05-01T06:11:19;1015.6;;;7.2;46.7
53699;BME280;68408;53.952;27.612;2023-05-01T06:16:39;1015.6;;;7.2;46.5
53699;BME280;68408;53.952;27.612;2023-05-01T06:21:53;1015.6;;;7.3;46.2
53699;BME280;68408;53.952;27.612;2023-05-01T06:26:25;1015.7;;;7.4;45.7
53699;BME280;68408;53.952;27.612;2023-05-01T06:31:29;1015.7;;;7.5;45.6
53699;BME280;68408;53.952;27.612;2023-05-01T06:36:31;1015.7;;;7.6;45.4
53699;BME280;68408;53.952;27.612;2023-05-01T06:41:55;1015.7;;;7.8;44.9
53699;BME280;68408;53.952;27.612;2023-05-01T06:46:31;1015.7;;;7.9;44.5
53699;BME280;68408;53.952;27.612;2023-05-01T06:51:21;1015.7;;;8.1;44.2
53699;BME280;68408;53.952;27.612;2023-05-01T06:56:55;1015.8;;;8.3;43.9
53699;BME280;68408;53.952;27.612;2023-05-01T07:01:09;1015.8;;;8.5;43.4
53699;BME280;68408;53.952;27.612;2023-05-01T07:06:19;1015.8;;;8.7;43.1
53699;BME280;68408;53.952;27.612;2023-05-01T07:11:27;1015.9;;;8.8;42.2
53699;BME280;68408;53.952;27.612;2023-05-01T07:16:55;1015.8;;;8.8;41.9
53699;BME280;68408;53.952;27.612;2023-05-01T07:21:21;1015.9;;;9.1;41.6
53699;BME280;68408;53.952;27.612;2023-05-01T07:26:53;1015.9;;;9.2;41.2
53699;BME280;68408;53.952;27.612;2023-05-01T07:31:44;1016;;;9.3;41.1
53699;BME280;68408;53.952;27.612;2023-05-01T07:36:09;1016;;;9.5;40.7
53699;BME280;68408;53.952;27.612;2023-05-01T07:41:31;1015.9;;;9.6;40.5
53699;BME280;68408;53.952;27.612;2023-05-01T07:46:43;1015.9;;;9.8;40
53699;BME280;68408;53.952;27.612;2023-05-01T07:51:27;1016;;;9.7;39.5
53699;BME280;68408;53.952;27.612;2023-05-01T07:56:55;1016;;;9.8;38.5
53699;BME280;68408;53.952;27.612;2023-05-01T08:01:21;1016;;;10;37.9
53699;BME280;68408;53.952;27.612;2023-05-01T08:06:55;1016;;;10.1;37.4
53699;BME280;68408;53.952;27.612;2023-05-01T08:11:39;1016.1;;;10;36.8
53699;BME280;68408;53.952;27.612;2023-05-01T08:16:09;1016.1;;;10;36.7
53699;BME280;68408;53.952;27.612;2023-05-01T08:21:09;1016.1;;;10.1;36.2
53699;BME280;68408;53.952;27.612;2023-05-01T08:26:55;1016;;;10.2;35.4
53699;BME280;68408;53.952;27.612;2023-05-01T08:31:21;1016;;;10.3;36
53699;BME280;68408;53.952;27.612;2023-05-01T08:36:43;1016;;;10.4;35.8
53699;BME280;68408;53.952;27.612;2023-05-01T08:41:44;1016;;;10.5;35.7
53699;BME280;68408;53.952;27.612;2023-05-01T08:46:23;1015.9;;;10.7;36.1
53699;BME280;68408;53.952;27.612;2023-05-01T08:51:33;1016;;;10.7;36.1
53699;BME280;68408;53.952;27.612;2023-05-01T08:56:35;1016;;;10.7;35.5
53699;BME280;68408;53.952;27.612;2023-05-01T09:01:21;1016;;;10.9;35.4
53699;BME280;68408;53.952;27.612;2023-05-01T09:06:47;1016.1;;;11;35
53699;BME280;68408;53.952;27.612;2023-05-01T09:11:58;1016.1;;;11;35
53699;BME280;68408;53.952;27.612;2023-05-01T09:16:28;1016.1;;;11;34.5
53699;BME280;68408;53.952;27.612;2023-05-01T09:21:33;1016.1;;;11;33.9
53699;BME280;68408;53.952;27.612;2023-05-01T09:26:47;1016.1;;;11;33.5
53699;BME280;68408;53.952;27.612;2023-05-01T09:31:43;1016;;;11.2;33.4
53699;BME280;68408;53.952;27.612;2023-05-01T09:36:32;1016.1;;;11.4;31.1
53699;BME280;68408;53.952;27.612;2023-05-01T09:41:49;1016;;;11.5;31.9
53699;BME280;68408;53.952;27.612;2023-05-01T09:46:55;1016;;;11.8;31.4
53699;BME280;68408;53.952;27.612;2023-05-01T09:52:09;1016;;;11.8;30.8
53699;BME280;68408;53.952;27.612;2023-05-01T09:56:09;1015.9;;;11.8;30.8
53699;BME280;68408;53.952;27.612;2023-05-01T10:01:55;1016;;;12;31.1
53699;BME280;68408;53.952;27.612;2023-05-01T10:06:47;1016;;;12;31
53699;BME280;68408;53.952;27.612;2023-05-01T10:11:23;1016;;;11.9;31.2
53699;BME280;68408;53.952;27.612;2023-05-01T10:16:28;1015.9;;;12.1;31.1
53699;BME280;68408;53.952;27.612;2023-05-01T10:21:45;1015.9;;;12.3;30.5
53699;BME280;68408;53.952;27.612;2023-05-01T10:26:20;1015.9;;;12.3;30
53699;BME280;68408;53.952;27.612;2023-05-01T10:31:35;1015.9;;;12.4;30.2
53699;BME280;68408;53.952;27.612;2023-05-01T10:36:56;1015.9;;;12.5;30.1
53699;BME280;68408;53.952;27.612;2023-05-01T10:42:26;1015.9;;;12.6;29.8
53699;BME280;68408;53.952;27.612;2023-05-01T10:46:29;1015.9;;;12.5;29.2
53699;BME280;68408;53.952;27.612;2023-05-01T10:52:03;1015.8;;;12.4;28.9
53699;BME280;68408;53.952;27.612;2023-05-01T10:56:38;1015.8;;;12.5;28.3
53699;BME280;68408;53.952;27.612;2023-05-01T11:01:48;1015.8;;;12.5;28.4
53699;BME280;68408;53.952;27.612;2023-05-01T11:06:17;1015.8;;;12.6;28.4
53699;BME280;68408;53.952;27.612;2023-05-01T11:12:14;1015.7;;;12.6;28.7
53699;BME280;68408;53.952;27.612;2023-05-01T11:16:55;1015.7;;;12.6;28.4
53699;BME280;68408;53.952;27.612;2023-05-01T11:21:53;1015.7;;;12.7;28.8
53699;BME280;68408;53.952;27.612;2023-05-01T11:26:15;1015.8;;;12.8;28.4
53699;BME280;68408;53.952;27.612;2023-05-01T11:31:31;1015.7;;;12.9;28.2
53699;BME280;68408;53.952;27.612;2023-05-01T11:36:09;1015.7;;;12.9;28.1
53699;BME280;68408;53.952;27.612;2023-05-01T11:42:05;1015.7;;;12.9;28.1
53699;BME280;68408;53.952;27.612;2023-05-01T11:46:22;1015.6;;;13;27.7
53699;BME280;68408;53.952;27.612;2023-05-01T11:51:11;1015.6;;;13.1;27.8
53699;BME280;68408;53.952;27.612;2023-05-01T11:56:56;1015.5;;;13.3;27.8
53699;BME280;68408;53.952;27.612;2023-05-01T12:01:37;1015.5;;;13.5;27.8
53699;BME280;68408;53.952;27.612;2023-05-01T12:06:15;1015.5;;;13.7;27.1
53699;BME280;68408;53.952;27.612;2023-05-01T12:11:21;1015.5;;;13.7;27.1
53699;BME280;68408;53.952;27.612;2023-05-01T12:16:36;1015.5;;;13.7;27
53699;BME280;68408;53.952;27.612;2023-05-01T12:21:21;1015.5;;;13.7;27
53699;BME280;68408;53.952;27.612;2023-05-01T12:26:58;1015.5;;;13.7;27.1
53699;BME280;68408;53.952;27.612;2023-05-01T12:31:55;1015.4;;;13.9;26.7
53699;BME280;68408;53.952;27.612;2023-05-01T12:36:09;1015.5;;;14.1;26.3
53699;BME280;68408;53.952;27.612;2023-05-01T12:41:10;1015.5;;;14;26.1
53699;BME280;68408;53.952;27.612;2023-05-01T12:46:12;1015.5;;;14.1;25.9
53699;BME280;68408;53.952;27.612;2023-05-01T12:51:54;1015.5;;;14.2;25.6
53699;BME280;68408;53.952;27.612;2023-05-01T12:56:45;1015.4;;;14.3;25.2
53699;BME280;68408;53.952;27.612;2023-05-01T13:01:22;1015.4;;;14.2;25
53699;BME280;68408;53.952;27.612;2023-05-01T13:06:54;1015.4;;;14.3;24.5
53699;BME280;68408;53.952;27.612;2023-05-01T13:11:55;1015.4;;;14.2;23.8
53699;BME280;68408;53.952;27.612;2023-05-01T13:16:23;1015.4;;;14.3;23.6
53699;BME280;68408;53.952;27.612;2023-05-01T13:21:27;1015.4;;;14.4;23.8
53699;BME280;68408;53.952;27.612;2023-05-01T13:26:56;1015.4;;;14.5;23.8
53699;BME280;68408;53.952;27.612;2023-05-01T13:31:10;1015.4;;;14.5;23.8
53699;BME280;68408;53.952;27.612;2023-05-01T13:36:30;1015.4;;;14.6;22.8
53699;BME280;68408;53.952;27.612;2023-05-01T13:41:55;1015.3;;;14.4;22.6
53699;BME280;68408;53.952;27.612;2023-05-01T13:46:31;1015.3;;;14.5;23.1
53699;BME280;68408;53.952;27.612;2023-05-01T13:51:55;1015.3;;;14.5;23
53699;BME280;68408;53.952;27.612;2023-05-01T13:56:48;1015.3;;;14.6;23.1
53699;BME280;68408;53.952;27.612;2023-05-01T14:01:27;1015.4;;;14.7;23.5
53699;BME280;68408;53.952;27.612;2023-05-01T14:06:47;1015.3;;;14.7;23.6
53699;BME280;68408;53.952;27.612;2023-05-01T14:11:40;1015.3;;;14.8;23.4
53699;BME280;68408;53.952;27.612;2023-05-01T14:16:56;1015.2;;;14.9;22.6
53699;BME280;68408;53.952;27.612;2023-05-01T14:21:33;1015.3;;;14.8;22.1
53699;BME280;68408;53.952;27.612;2023-05-01T14:26:56;1015.3;;;14.7;22.1
53699;BME280;68408;53.952;27.612;2023-05-01T14:31:23;1015.3;;;14.7;22
53699;BME280;68408;53.952;27.612;2023-05-01T14:36:20;1015.3;;;14.7;22.7
53699;BME280;68408;53.952;27.612;2023-05-01T14:41:21;1015.3;;;14.8;22.5
53699;BME280;68408;53.952;27.612;2023-05-01T14:46:56;1015.2;;;14.8;22.6
53699;BME280;68408;53.952;27.612;2023-05-01T14:51:20;1015.2;;;14.9;22.7
53699;BME280;68408;53.952;27.612;2023-05-01T14:56:20;1015.2;;;15;22.2
53699;BME280;68408;53.952;27.612;2023-05-01T15:01:54;1015.2;;;14.8;22.7
53699;BME280;68408;53.952;27.612;2023-05-01T15:06:36;1015.2;;;14.9;22.7
53699;BME280;68408;53.952;27.612;2023-05-01T15:11:26;1015.2;;;14.9;22.5
53699;BME280;68408;53.952;27.612;2023-05-01T15:16:28;1015.2;;;14.9;22.3
53699;BME280;68408;53.952;27.612;2023-05-01T15:21:56;1015.2;;;14.9;22.2
53699;BME280;68408;53.952;27.612;2023-05-01T15:26:10;1015.2;;;14.8;22.1
53699;BME280;68408;53.952;27.612;2023-05-01T15:31:56;1015.2;;;14.7;22.1
53699;BME280;68408;53.952;27.612;2023-05-01T15:36:56;1015.2;;;14.8;22.2
53699;BME280;68408;53.952;27.612;2023-05-01T15:41:10;1015.1;;;14.9;22.3
53699;BME280;68408;53.952;27.612;2023-05-01T15:46:20;1015.2;;;15;22.4
53699;BME280;68408;53.952;27.612;2023-05-01T15:51:56;1015.2;;;15.1;22.3
53699;BME280;68408;53.952;27.612;2023-05-01T15:56:46;1015.1;;;15.1;22.3
53699;BME280;68408;53.952;27.612;2023-05-01T16:01:46;1015.1;;;15.1;22.5
53699;BME280;68408;53.952;27.612;2023-05-01T16:06:36;1015.1;;;15.3;22.3
53699;BME280;68408;53.952;27.612;2023-05-01T16:11:58;1015.1;;;15.4;22.3
53699;BME280;68408;53.952;27.612;2023-05-01T16:16:12;1015.1;;;15.6;22.3
53699;BME280;68408;53.952;27.612;2023-05-01T16:21:20;1015.1;;;15.7;22.3
53699;BME280;68408;53.952;27.612;2023-05-01T16:26:22;1015;;;15.7;22.5
53699;BME280;68408;53.952;27.612;2023-05-01T16:31:56;1015.1;;;15.6;22.5
53699;BME280;68408;53.952;27.612;2023-05-01T16:36:10;1015;;;15.8;22.6
53699;BME280;68408;53.952;27.612;2023-05-01T16:41:18;1015.1;;;15.8;22.6
53699;BME280;68408;53.952;27.612;2023-05-01T16:46:46;1015.1;;;15.8;22.7
53699;BME280;68408;53.952;27.612;2023-05-01T16:51:20;1015.1;;;15.6;22.8
53699;BME280;68408;53.952;27.612;2023-05-01T16:56:40;1015.1;;;15.3;23.2
53699;BME280;68408;53.952;27.612;2023-05-01T17:01:36;1015.2;;;14.9;23.4
53699;BME280;68408;53.952;27.612;2023-05-01T17:06:22;1015.2;;;14.7;23.7
53699;BME280;68408;53.952;27.612;2023-05-01T17:11:48;1015.2;;;14.5;24.3
53699;BME280;68408;53.952;27.612;2023-05-01T17:16:56;1015.3;;;14.2;24.5
53699;BME280;68408;53.952;27.612;2023-05-01T17:21:10;1015.3;;;14;24.8
53699;BME280;68408;53.952;27.612;2023-05-01T17:26:40;1015.3;;;13.8;25
53699;BME280;68408;53.952;27.612;2023-05-01T17:31:48;1015.4;;;13.5;25.5
53699;BME280;68408;53.952;27.612;2023-05-01T17:36:56;1015.4;;;13.4;25.8
53699;BME280;68408;53.952;27.612;2023-05-01T17:41:10;1015.5;;;13.2;25.9
53699;BME280;68408;53.952;27.612;2023-05-01T17:46:42;1015.5;;;13;26.2
53699;BME280;68408;53.952;27.612;2023-05-01T17:51:56;1015.6;;;12.9;26.6
53699;BME280;68408;53.952;27.612;2023-05-01T17:56:56;1015.6;;;12.7;26.9
53699;BME280;68408;53.952;27.612;2023-05-01T18:01:42;1015.7;;;12.6;27.1
53699;BME280;68408;53.952;27.612;2023-05-01T18:06:58;1015.8;;;12.5;27.4
53699;BME280;68408;53.952;27.612;2023-05-01T18:11:48;1015.8;;;12.4;27.8
53699;BME280;68408;53.952;27.612;2023-05-01T18:16:10;1015.8;;;12.3;28.2
53699;BME280;68408;53.952;27.612;2023-05-01T18:21:18;1015.8;;;12.1;28.8
53699;BME280;68408;53.952;27.612;2023-05-01T18:26:58;1015.9;;;12;29.6
53699;BME280;68408;53.952;27.612;2023-05-01T18:31:36;1016;;;11.8;30.3
53699;BME280;68408;53.952;27.612;2023-05-01T18:36:44;1016;;;11.7;30.6
53699;BME280;68408;53.952;27.612;2023-05-01T18:41:56;1016;;;11.6;31.3
53699;BME280;68408;53.952;27.612;2023-05-01T18:46:32;1016;;;11.4;32.1
53699;BME280;68408;53.952;27.612;2023-05-01T18:51:10;1016;;;11.3;32.4
53699;BME280;68408;53.952;27.612;2023-05-01T18:56:56;1016.1;;;11.2;32.8
53699;BME280;68408;53.952;27.612;2023-05-01T19:01:10;1016.1;;;11;33.3
53699;BME280;68408;53.952;27.612;2023-05-01T19:06:12;1016.1;;;10.9;33.9
53699;BME280;68408;53.952;27.612;2023-05-01T19:11:24;1016.1;;;10.8;34.5
53699;BME280;68408;53.952;27.612;2023-05-01T19:16:28;1016.2;;;10.8;35.1
53699;BME280;68408;53.952;27.612;2023-05-01T19:21:34;1016.2;;;10.7;35.7
53699;BME280;68408;53.952;27.612;2023-05-01T19:26:58;1016.2;;;10.6;35.6
53699;BME280;68408;53.952;27.612;2023-05-01T19:31:20;1016.2;;;10.6;35.8
53699;BME280;68408;53.952;27.612;2023-05-01T19:36:32;1016.3;;;10.5;36.7
53699;BME280;68408;53.952;27.612;2023-05-01T19:41:10;1016.2;;;10.4;37.5
53699;BME280;68408;53.952;27.612;2023-05-01T19:46:56;1016.2;;;10.3;37.7
53699;BME280;68408;53.952;27.612;2023-05-01T19:51:48;1016.2;;;10.2;37.9
53699;BME280;68408;53.952;27.612;2023-05-01T19:56:22;1016.2;;;10.1;38.5
53699;BME280;68408;53.952;27.612;2023-05-01T20:01:56;1016.2;;;10;38.7
53699;BME280;68408;53.952;27.612;2023-05-01T20:06:36;1016.2;;;9.9;39.1
53699;BME280;68408;53.952;27.612;2023-05-01T20:11:10;1016.2;;;9.8;39.3
53699;BME280;68408;53.952;27.612;2023-05-01T20:16:28;1016.2;;;9.7;39.5
53699;BME280;68408;53.952;27.612;2023-05-01T20:21:54;1016.2;;;9.7;39.7
53699;BME280;68408;53.952;27.612;2023-05-01T20:26:10;1016.2;;;9.6;40.1
53699;BME280;68408;53.952;27.612;2023-05-01T20:31:57;1016.2;;;9.5;40.9
53699;BME280;68408;53.952;27.612;2023-05-01T20:36:56;1016.2;;;9.4;41.3
53699;BME280;68408;53.952;27.612;2023-05-01T20:41:32;1016.2;;;9.3;41.5
53699;BME280;68408;53.952;27.612;2023-05-01T20:46:20;1016.2;;;9.2;41.8
53699;BME280;68408;53.952;27.612;2023-05-01T20:51:44;1016.2;;;9.1;42
53699;BME280;68408;53.952;27.612;2023-05-01T20:56:40;1016.2;;;9;42.2
53699;BME280;68408;53.952;27.612;2023-05-01T21:01:48;1016.2;;;8.9;42.5
53699;BME280;68408;53.952;27.612;2023-05-01T21:06:36;1016.2;;;8.9;42.7
53699;BME280;68408;53.952;27.612;2023-05-01T21:11:56;1016.3;;;8.8;42.8
53699;BME280;68408;53.952;27.612;2023-05-01T21:16:50;1016.2;;;8.8;42.6
53699;BME280;68408;53.952;27.612;2023-05-01T21:21:20;1016.3;;;8.7;43.2
53699;BME280;68408;53.952;27.612;2023-05-01T21:26:28;1016.2;;;8.6;43.7
53699;BME280;68408;53.952;27.612;2023-05-01T21:31:40;1016.2;;;8.6;43.8
53699;BME280;68408;53.952;27.612;2023-05-01T21:36:32;1016.3;;;8.5;44.1
53699;BME280;68408;53.952;27.612;2023-05-01T21:41:42;1016.4;;;8.4;44.6
53699;BME280;68408;53.952;27.612;2023-05-01T21:46:44;1016.4;;;8.4;44.5
53699;BME280;68408;53.952;27.612;2023-05-01T21:51:23;1016.5;;;8.4;44.5
53699;BME280;68408;53.952;27.612;2023-05-01T21:56:32;1016.5;;;8.4;44.4
53699;BME280;68408;53.952;27.612;2023-05-01T22:01:36;1016.4;;;8.4;44.5
53699;BME280;68408;53.952;27.612;2023-05-01T22:06:22;1016.5;;;8.3;44.7
53699;BME280;68408;53.952;27.612;2023-05-01T22:11:34;1016.5;;;8.3;45.1
53699;BME280;68408;53.952;27.612;2023-05-01T22:16:36;1016.5;;;8.2;45.5
53699;BME280;68408;53.952;27.612;2023-05-01T22:21:10;1016.6;;;8.1;45.5
53699;BME280;68408;53.952;27.612;2023-05-01T22:26:12;1016.6;;;8.1;45.1
53699;BME280;68408;53.952;27.612;2023-05-01T22:31:56;1016.6;;;8.1;45.2
53699;BME280;68408;53.952;27.612;2023-05-01T22:36:28;1016.6;;;8.1;45.6
53699;BME280;68408;53.952;27.612;2023-05-01T22:41:20;1016.6;;;8;45.2
53699;BME280;68408;53.952;27.612;2023-05-01T22:46:10;1016.6;;;8;45.2
53699;BME280;68408;53.952;27.612;2023-05-01T22:51:56;1016.6;;;8;45
53699;BME280;68408;53.952;27.612;2023-05-01T22:56:20;1016.7;;;8;44.9
53699;BME280;68408;53.952;27.612;2023-05-01T23:01:10;1016.7;;;8;45.1
53699;BME280;68408;53.952;27.612;2023-05-01T23:06:58;1016.7;;;8;45.3
53699;BME280;68408;53.952;27.612;2023-05-01T23:11:22;1016.7;;;7.9;45.5
53699;BME280;68408;53.952;27.612;2023-05-01T23:16:59;1016.7;;;7.9;45.6
53699;BME280;68408;53.952;27.612;2023-05-01T23:21:10;1016.7;;;7.8;45.6
53699;BME280;68408;53.952;27.612;2023-05-01T23:26:58;1016.7;;;7.8;45.7
53699;BME280;68408;53.952;27.612;2023-05-01T23:31:56;1016.7;;;7.8;45.7
53699;BME280;68408;53.952;27.612;2023-05-01T23:36:50;1016.7;;;7.8;45.8
53699;BME280;68408;53.952;27.612;2023-05-01T23:41:44;1016.7;;;7.7;45.8
53699;BME280;68408;53.952;27.612;2023-05-01T23:46:46;1016.6;;;7.7;46
53699;BME280;68408;53.952;27.612;2023-05-01T23:51:46;1016.6;;;7.7;46
53699;BME280;68408;53.952;27.612;2023-05-01T23:56:42;1016.5;;;7.6;46.1
